Time;durP1;ratioP1;P1;durP2;ratioP2;P2;SDS_P1;SDS_P2;PMS_P1;PMS_P2;Temp;Humidity;BMP_temperature;BMP_pressure;BME280_temperature;BME280_humidity;BME280_pressure;Samples;Min_cycle;Max_cycle;Signal;HPM_P1;HPM_P2
2023/09/20 00:00:54;;;;;;;2.60;2.40;;;;;;;16.92;100.00;100554.72;5042908;28;20037;-80
2023/09/20 00:03:19;;;;;;;1.75;1.63;;;;;;;16.98;100.00;100567.84;5064530;28;20127;-80
2023/09/20 00:05:47;;;;;;;0.70;0.70;;;;;;;17.59;100.00;100666.25;5064111;28;20024;-80
2023/09/20 00:08:14;;;;;;;2.88;2.60;;;;;;;17.35;100.00;100612.03;5061375;28;20028;-82
2023/09/20 00:10:39;;;;;;;5.07;3.40;;;;;;;17.51;100.00;100645.22;5034843;28;20045;-80
2023/09/20 00:13:09;;;;;;;1.65;1.27;;;;;;;17.57;100.00;100667.22;5061783;28;20550;-82
2023/09/20 00:15:35;;;;;;;5.15;3.17;;;;;;;17.01;100.00;100586.31;5053148;28;20059;-83
2023/09/20 00:18:01;;;;;;;1.45;1.35;;;;;;;16.91;100.00;100538.88;5061518;28;20045;-79
2023/09/20 00:20:26;;;;;;;1.65;1.25;;;;;;;16.22;100.00;100436.25;5071165;28;20373;-83
2023/09/20 00:22:52;;;;;;;3.35;2.70;;;;;;;17.37;100.00;100628.78;5060810;28;20119;-80
2023/09/20 00:25:18;;;;;;;7.45;3.28;;;;;;;17.64;100.00;100676.75;5062965;28;20392;-82
2023/09/20 00:27:46;;;;;;;4.68;2.95;;;;;;;16.48;100.00;100486.84;5052103;28;20176;-81
2023/09/20 00:30:17;;;;;;;3.20;2.90;;;;;;;17.10;100.00;100598.50;5066235;28;20063;-81
2023/09/20 00:32:44;;;;;;;1.60;1.38;;;;;;;16.96;100.00;100571.44;5050298;28;20032;-82
2023/09/20 00:35:16;;;;;;;2.20;1.85;;;;;;;17.54;100.00;100669.94;5056099;28;20063;-82
2023/09/20 00:37:44;;;;;;;2.42;2.22;;;;;;;17.42;100.00;100660.47;5071472;28;20041;-82
2023/09/20 00:40:15;;;;;;;5.13;1.27;;;;;;;16.70;100.00;100543.72;5076086;28;20033;-82
2023/09/20 00:42:51;;;;;;;3.05;2.72;;;;;;;16.37;100.00;100495.06;5062483;28;20036;-81
2023/09/20 00:45:19;;;;;;;2.67;2.47;;;;;;;16.96;100.00;100584.69;5057780;28;20069;-81
2023/09/20 00:47:51;;;;;;;2.15;2.03;;;;;;;16.81;100.00;100559.41;5070219;28;20087;-82
2023/09/20 00:50:18;;;;;;;1.92;1.05;;;;;;;17.50;100.00;100677.97;5044516;28;20029;-81
2023/09/20 00:52:46;;;;;;;1.45;1.35;;;;;;;16.98;100.00;100591.69;5060349;28;20048;-79
2023/09/20 00:55:20;;;;;;;3.50;2.08;;;;;;;17.55;100.00;100688.47;5055894;28;20079;-79
2023/09/20 00:57:48;;;;;;;2.83;2.58;;;;;;;17.54;100.00;100686.75;5064368;28;20044;-82
2023/09/20 01:00:20;;;;;;;1.52;1.42;;;;;;;17.08;100.00;100601.16;5060588;28;20483;-80
2023/09/20 01:02:51;;;;;;;2.30;1.67;;;;;;;17.45;100.00;100641.84;5054812;28;20041;-82
2023/09/20 01:05:21;;;;;;;5.32;3.53;;;;;;;17.10;100.00;100582.59;5055190;28;20068;-82
2023/09/20 01:07:50;;;;;;;2.60;2.40;;;;;;;17.81;100.00;100677.22;5060230;28;20102;-81
2023/09/20 01:10:18;;;;;;;2.38;2.17;;;;;;;17.76;100.00;100660.53;5066379;28;20041;-82
2023/09/20 01:12:44;;;;;;;2.90;2.60;;;;;;;17.81;100.00;100663.09;5067311;28;20052;-81
2023/09/20 01:15:10;;;;;;;2.88;2.60;;;;;;;17.27;100.00;100577.72;5040610;28;20045;-82
2023/09/20 01:17:50;;;;;;;1.77;1.48;;;;;;;17.50;100.00;100614.28;5067934;28;20074;-81
2023/09/20 01:20:19;;;;;;;1.35;1.17;;;;;;;17.84;100.00;100674.50;5063394;28;20123;-82
2023/09/20 01:22:54;;;;;;;2.25;1.92;;;;;;;17.80;100.00;100656.03;5060858;28;20105;-81
2023/09/20 01:25:25;;;;;;;1.27;0.95;;;;;;;17.79;100.00;100654.25;5063552;28;20056;-79
2023/09/20 01:27:56;;;;;;;1.05;0.95;;;;;;;17.38;100.00;100566.00;5066424;28;20040;-80
2023/09/20 01:30:26;;;;;;;3.13;2.85;;;;;;;17.50;100.00;100589.53;5043658;28;20135;-81
2023/09/20 01:32:55;;;;;;;2.00;1.80;;;;;;;17.64;100.00;100597.16;5062694;28;20032;-81
2023/09/20 01:35:23;;;;;;;2.67;2.40;;;;;;;17.95;100.00;100652.13;5060871;28;20131;-81
2023/09/20 01:37:52;;;;;;;2.45;2.20;;;;;;;17.43;100.00;100561.44;5068074;28;20136;-80
2023/09/20 01:40:23;;;;;;;1.00;0.88;;;;;;;17.26;100.00;100541.50;5062925;28;20049;-81
2023/09/20 01:42:49;;;;;;;1.38;1.30;;;;;;;17.80;100.00;100625.03;5063571;28;20044;-80
2023/09/20 01:45:17;;;;;;;3.17;2.35;;;;;;;17.90;100.00;100674.34;5058905;28;20484;-83
2023/09/20 01:47:47;;;;;;;4.47;2.47;;;;;;;17.96;100.00;100660.03;5053571;28;20190;-81
2023/09/20 01:50:22;;;;;;;2.47;2.30;;;;;;;17.54;100.00;100577.09;5068231;28;20024;-80
2023/09/20 01:52:50;;;;;;;1.83;1.73;;;;;;;17.78;100.00;100636.59;5048083;28;20041;-80
2023/09/20 01:55:20;;;;;;;1.92;1.55;;;;;;;17.82;100.00;100633.00;5068127;28;20055;-82
2023/09/20 01:57:47;;;;;;;1.05;0.95;;;;;;;17.36;100.00;100571.31;5067403;28;20056;-81
2023/09/20 02:00:16;;;;;;;1.65;1.55;;;;;;;17.69;100.00;100640.34;5060020;28;20072;-84
2023/09/20 02:02:44;;;;;;;1.73;1.55;;;;;;;17.50;100.00;100616.06;5067443;28;20017;-80
2023/09/20 02:05:10;;;;;;;2.28;1.75;;;;;;;17.14;100.00;100535.63;5068457;28;20381;-81
2023/09/20 02:07:37;;;;;;;2.47;2.28;;;;;;;17.51;100.00;100588.63;5067960;28;20766;-82
2023/09/20 02:10:07;;;;;;;1.00;0.90;;;;;;;17.32;100.00;100553.72;5047269;28;20065;-80
2023/09/20 02:12:34;;;;;;;2.13;1.77;;;;;;;17.76;100.00;100618.06;5066711;28;20040;-82
2023/09/20 02:15:00;;;;;;;4.50;4.10;;;;;;;17.16;100.00;100504.66;5052777;28;20101;-81
2023/09/20 02:17:26;;;;;;;4.18;2.38;;;;;;;17.15;100.00;100503.78;5050065;28;20029;-82
2023/09/20 02:19:51;;;;;;;1.63;1.52;;;;;;;17.86;100.00;100639.94;5068752;28;20051;-79
2023/09/20 02:22:17;;;;;;;2.47;1.73;;;;;;;17.05;100.00;100510.25;5062929;28;20057;-82
2023/09/20 02:24:43;;;;;;;3.55;3.20;;;;;;;17.77;100.00;100625.13;5061318;28;20072;-80
2023/09/20 02:27:08;;;;;;;1.92;1.45;;;;;;;17.90;100.00;100644.28;5042964;28;20051;-82
2023/09/20 02:29:35;;;;;;;2.17;1.98;;;;;;;17.82;100.00;100635.66;5063962;28;20029;-83
2023/09/20 02:32:00;;;;;;;1.23;1.13;;;;;;;16.76;100.00;100450.81;5062520;28;20028;-81
2023/09/20 02:34:26;;;;;;;1.83;1.65;;;;;;;17.76;100.00;100641.94;5048093;28;20094;-81
2023/09/20 02:36:52;;;;;;;6.25;2.40;;;;;;;17.50;100.00;100605.47;5060385;28;20037;-80
2023/09/20 02:39:18;;;;;;;0.90;0.88;;;;;;;17.03;100.00;100526.19;5060328;28;20076;-80
2023/09/20 02:41:44;;;;;;;5.63;4.00;;;;;;;17.03;100.00;100531.47;5056910;28;20097;-81
2023/09/20 02:44:10;;;;;;;4.25;2.17;;;;;;;17.75;100.00;100631.34;5061541;28;20123;-81
2023/09/20 02:46:36;;;;;;;3.25;2.97;;;;;;;16.94;100.00;100517.59;5054462;28;20460;-81
2023/09/20 02:49:03;;;;;;;1.63;1.50;;;;;;;17.62;100.00;100634.34;5065057;28;20183;-81
2023/09/20 02:51:29;;;;;;;1.10;0.82;;;;;;;17.56;100.00;100628.31;5062691;28;20044;-81
2023/09/20 02:53:54;;;;;;;5.35;3.40;;;;;;;17.39;100.00;100624.28;5058893;28;20086;-82
2023/09/20 02:56:21;;;;;;;2.40;1.98;;;;;;;16.66;100.00;100524.38;5047334;28;20132;-79
2023/09/20 02:58:48;;;;;;;1.60;1.10;;;;;;;15.72;100.00;100319.16;5064012;28;20067;-80
2023/09/20 03:01:17;;;;;;;1.90;1.20;;;;;;;17.33;100.00;100576.72;5041234;28;20064;-80
2023/09/20 03:03:43;;;;;;;2.67;2.47;;;;;;;17.67;100.00;100631.56;5066052;28;20036;-81
2023/09/20 03:06:10;;;;;;;4.20;3.78;;;;;;;17.42;100.00;100600.34;5061676;28;20037;-81
2023/09/20 03:08:36;;;;;;;2.55;1.23;;;;;;;17.33;100.00;100571.41;5065168;28;20064;-83
2023/09/20 03:11:01;;;;;;;2.10;1.95;;;;;;;17.45;100.00;100591.44;5040605;28;20463;-81
2023/09/20 03:13:30;;;;;;;3.95;3.10;;;;;;;16.92;100.00;100499.06;5066316;28;20044;-81
2023/09/20 03:15:55;;;;;;;2.22;1.73;;;;;;;17.84;100.00;100657.69;5069204;28;20063;-81
2023/09/20 03:18:22;;;;;;;1.88;1.65;;;;;;;17.63;100.00;100619.28;5053336;28;20464;-79
2023/09/20 03:20:49;;;;;;;0.80;0.65;;;;;;;17.46;100.00;100602.00;5053136;28;20110;-81
2023/09/20 03:23:14;;;;;;;3.05;2.80;;;;;;;17.62;100.00;100626.38;5039301;28;20029;-80
2023/09/20 03:25:40;;;;;;;2.50;2.22;;;;;;;17.73;100.00;100650.00;5063732;28;20044;-83
2023/09/20 03:28:10;;;;;;;1.50;1.30;;;;;;;17.69;100.00;100632.41;5061647;28;20048;-83
2023/09/20 03:30:39;;;;;;;1.58;1.48;;;;;;;17.08;100.00;100550.78;5061832;28;20048;-86
2023/09/20 03:33:06;;;;;;;3.08;2.85;;;;;;;17.66;100.00;100662.53;5063353;28;20037;-81
2023/09/20 03:35:33;;;;;;;1.77;1.65;;;;;;;17.64;100.00;100637.81;5063530;28;20169;-81
2023/09/20 03:37:59;;;;;;;4.45;3.22;;;;;;;17.58;100.00;100653.03;5068814;28;20052;-82
2023/09/20 03:40:27;;;;;;;3.13;1.92;;;;;;;17.56;100.00;100615.03;5044956;28;20033;-82
2023/09/20 03:42:53;;;;;;;2.15;1.95;;;;;;;16.74;100.00;100460.63;5069088;28;20051;-83
2023/09/20 03:45:21;;;;;;;1.10;1.00;;;;;;;17.37;100.00;100567.78;5063369;28;20094;-81
2023/09/20 03:47:56;;;;;;;1.30;1.05;;;;;;;17.36;100.00;100567.81;5064755;28;20028;-80
2023/09/20 03:50:22;;;;;;;1.80;1.70;;;;;;;17.63;100.00;100611.31;5064739;28;20032;-80
2023/09/20 03:52:48;;;;;;;2.83;2.33;;;;;;;16.93;100.00;100543.22;5058751;28;20530;-83
2023/09/20 03:55:14;;;;;;;2.22;1.30;;;;;;;17.61;100.00;100640.56;5067384;28;20052;-80
2023/09/20 03:57:40;;;;;;;3.92;2.55;;;;;;;17.21;100.00;100561.13;5059317;28;20045;-80
2023/09/20 04:00:11;;;;;;;0.80;0.73;;;;;;;17.00;100.00;100550.13;5064187;28;20079;-82
2023/09/20 04:02:37;;;;;;;1.77;1.65;;;;;;;17.10;100.00;100537.50;5054889;28;20025;-81
2023/09/20 04:05:13;;;;;;;2.25;0.88;;;;;;;17.80;100.00;100656.03;5055297;28;20033;-81
2023/09/20 04:07:46;;;;;;;2.45;2.25;;;;;;;17.45;100.00;100634.75;5062464;28;20439;-82
2023/09/20 04:10:13;;;;;;;1.98;1.67;;;;;;;17.51;100.00;100613.41;5033874;28;20064;-79
2023/09/20 04:12:39;;;;;;;1.60;1.20;;;;;;;17.06;100.00;100557.03;5065686;28;20040;-81
2023/09/20 04:15:05;;;;;;;3.20;1.92;;;;;;;17.22;100.00;100574.31;5066757;28;20044;-82
2023/09/20 04:17:35;;;;;;;1.92;1.80;;;;;;;17.71;100.00;100654.47;5064940;28;20078;-82
2023/09/20 04:20:07;;;;;;;0.90;0.85;;;;;;;17.48;100.00;100599.31;5059189;28;20029;-81
2023/09/20 04:22:34;;;;;;;6.85;2.70;;;;;;;17.63;100.00;100617.50;5066509;28;20216;-89
2023/09/20 04:25:00;;;;;;;2.15;2.05;;;;;;;17.83;100.00;100667.44;5070163;28;20178;-81
2023/09/20 04:27:27;;;;;;;5.28;2.22;;;;;;;17.13;100.00;100516.22;5064389;28;20819;-82
2023/09/20 04:29:53;;;;;;;2.08;1.90;;;;;;;17.27;100.00;100553.00;5061663;28;20039;-82
2023/09/20 04:32:18;;;;;;;3.25;3.05;;;;;;;17.03;100.00;100512.94;5068584;28;20076;-81
2023/09/20 04:34:45;;;;;;;7.78;2.63;;;;;;;17.18;100.00;100532.00;5062022;28;20041;-83
2023/09/20 04:37:12;;;;;;;2.08;1.35;;;;;;;17.95;100.00;100657.41;5065819;28;20767;-81
2023/09/20 04:39:39;;;;;;;0.88;0.85;;;;;;;18.00;100.00;100639.56;5063137;28;20052;-83
2023/09/20 04:42:07;;;;;;;1.92;1.42;;;;;;;17.77;100.00;100603.88;5044782;28;20591;-85
2023/09/20 04:44:33;;;;;;;1.50;1.40;;;;;;;17.78;100.00;100588.81;5077751;28;20033;-83
2023/09/20 04:46:58;;;;;;;4.25;2.90;;;;;;;17.63;100.00;100579.47;5079476;28;20054;-81
2023/09/20 04:49:24;;;;;;;1.85;1.52;;;;;;;17.52;100.00;100553.22;5047745;28;20491;-81
2023/09/20 04:51:50;;;;;;;19.85;1.20;;;;;;;18.18;100.00;100655.00;5070096;28;20080;-84
2023/09/20 04:54:15;;;;;;;1.52;1.23;;;;;;;17.85;100.00;100609.88;5064160;28;20057;-83
2023/09/20 04:56:47;;;;;;;2.42;1.90;;;;;;;18.18;100.00;100640.88;5066729;28;20057;-82
2023/09/20 04:59:15;;;;;;;2.33;1.88;;;;;;;17.81;100.00;100584.31;5042964;28;20065;-80
2023/09/20 05:01:43;;;;;;;1.30;1.20;;;;;;;17.62;100.00;100565.34;5038839;28;20439;-84
2023/09/20 05:04:13;;;;;;;1.63;1.40;;;;;;;17.54;100.00;100531.97;5052925;28;20203;-83
2023/09/20 05:06:42;;;;;;;3.17;2.15;;;;;;;17.83;100.00;100566.56;5044619;28;20136;-81
2023/09/20 05:09:09;;;;;;;1.00;0.90;;;;;;;18.20;100.00;100623.97;5066868;28;20033;-80
2023/09/20 05:11:35;;;;;;;1.98;1.75;;;;;;;18.33;100.00;100637.75;5061683;28;20044;-77
2023/09/20 05:14:01;;;;;;;0.90;0.85;;;;;;;17.87;100.00;100556.75;5050465;28;20396;-79
2023/09/20 05:16:27;;;;;;;2.47;1.17;;;;;;;18.38;100.00;100635.88;5062027;28;20048;-81
2023/09/20 05:18:52;;;;;;;1.88;1.73;;;;;;;17.75;100.00;100538.44;5041880;28;20468;-81
2023/09/20 05:21:18;;;;;;;2.00;1.80;;;;;;;18.46;100.00;100651.59;5066813;28;20052;-81
2023/09/20 05:23:43;;;;;;;1.35;1.27;;;;;;;18.46;100.00;100662.22;5065323;28;20029;-81
2023/09/20 05:26:09;;;;;;;3.35;3.08;;;;;;;18.44;100.00;100661.38;5066069;28;20028;-82
2023/09/20 05:28:35;;;;;;;2.92;2.65;;;;;;;18.54;100.00;100662.84;5053263;28;20120;-80
2023/09/20 05:31:05;;;;;;;3.55;1.80;;;;;;;17.93;100.00;100528.25;5065914;28;20064;-82
2023/09/20 05:33:31;;;;;;;1.52;1.42;;;;;;;18.78;100.00;100666.63;5066617;28;20036;-83
2023/09/20 05:35:58;;;;;;;3.13;2.88;;;;;;;18.61;100.00;100645.81;5067529;28;20052;-79
2023/09/20 05:38:24;;;;;;;3.38;1.65;;;;;;;18.22;100.00;100566.38;5050818;28;20100;-79
2023/09/20 05:40:50;;;;;;;3.67;1.30;;;;;;;18.30;100.00;100563.47;5048784;28;20036;-79
2023/09/20 05:43:16;;;;;;;3.38;2.72;;;;;;;18.97;100.00;100666.94;5058910;28;20357;-82
2023/09/20 05:45:42;;;;;;;6.88;2.83;;;;;;;18.95;100.00;100652.81;5065955;28;20130;-80
2023/09/20 05:48:10;;;;;;;3.35;2.67;;;;;;;18.94;100.00;100669.69;5064523;28;20132;-82
2023/09/20 05:50:36;;;;;;;1.75;1.45;;;;;;;18.76;100.00;100642.75;5059514;28;20060;-85
2023/09/20 05:53:12;;;;;;;0.75;0.75;;;;;;;18.57;100.00;100601.66;5062821;28;20029;-79
2023/09/20 05:55:38;;;;;;;10.90;2.10;;;;;;;18.98;100.00;100676.66;5063488;28;20050;-82
2023/09/20 05:58:06;;;;;;;1.77;1.65;;;;;;;18.39;100.00;100578.28;5056248;28;20051;-81
2023/09/20 06:00:33;;;;;;;17.50;3.58;;;;;;;18.82;100.00;100641.66;5064663;28;20102;-82
2023/09/20 06:02:59;;;;;;;1.58;1.48;;;;;;;19.02;100.00;100677.44;5041390;28;20033;-82
2023/09/20 06:05:25;;;;;;;1.23;1.13;;;;;;;18.99;100.00;100689.06;5047259;28;20037;-81
2023/09/20 06:07:53;;;;;;;1.88;1.70;;;;;;;18.64;100.00;100628.94;5064644;28;20052;-80
2023/09/20 06:10:19;;;;;;;1.85;1.40;;;;;;;19.13;100.00;100694.81;5059815;28;20360;-82
2023/09/20 06:12:45;;;;;;;1.38;1.23;;;;;;;19.02;100.00;100683.63;5067792;28;20404;-81
2023/09/20 06:15:14;;;;;;;1.33;1.23;;;;;;;19.03;100.00;100685.34;5069019;28;20051;-80
2023/09/20 06:17:42;;;;;;;3.13;2.55;;;;;;;19.21;100.00;100691.03;5053108;28;20520;-78
2023/09/20 06:20:11;;;;;;;1.08;0.98;;;;;;;18.76;100.00;100599.31;5069924;28;20086;-79
2023/09/20 06:22:38;;;;;;;1.40;1.30;;;;;;;18.87;100.00;100605.19;5056008;28;20113;-81
2023/09/20 06:25:05;;;;;;;0.30;0.30;;;;;;;18.71;100.00;100570.19;5063638;28;20040;-81
2023/09/20 06:27:31;;;;;;;4.97;2.67;;;;;;;18.81;100.00;100584.09;5060023;28;20037;-81
2023/09/20 06:30:07;;;;;;;1.65;1.55;;;;;;;19.32;100.00;100676.47;5058060;28;20044;-82
2023/09/20 06:32:33;;;;;;;1.70;1.60;;;;;;;18.05;100.00;100457.09;5049140;28;20040;-81
2023/09/20 06:35:06;;;;;;;4.00;2.65;;;;;;;19.63;100.00;100714.53;5053160;28;20806;-83
2023/09/20 06:37:33;;;;;;;1.92;1.25;;;;;;;19.47;100.00;100687.53;5067295;28;20109;-81
2023/09/20 06:39:59;;;;;;;2.53;2.33;;;;;;;19.65;100.00;100720.69;5048609;28;20186;-81
2023/09/20 06:42:26;;;;;;;7.57;2.53;;;;;;;19.75;100.00;100724.81;5066991;28;20055;-79
2023/09/20 06:44:52;;;;;;;1.70;1.60;;;;;;;18.81;100.00;100600.06;5057073;28;20048;-79
2023/09/20 06:47:18;;;;;;;1.35;1.20;;;;;;;19.17;100.00;100653.00;5057219;28;20044;-78
2023/09/20 06:49:44;;;;;;;0.55;0.50;;;;;;;19.18;100.00;100676.03;5059548;28;20045;-81
2023/09/20 06:52:11;;;;;;;3.83;1.70;;;;;;;19.33;100.00;100714.59;5062335;28;20048;-82
2023/09/20 06:54:38;;;;;;;3.35;1.98;;;;;;;18.92;100.00;100648.47;5056400;28;20051;-80
2023/09/20 06:57:04;;;;;;;2.22;1.65;;;;;;;18.97;100.00;100651.84;5040984;28;20120;-79
2023/09/20 06:59:33;;;;;;;1.83;1.73;;;;;;;18.98;100.00;100642.06;5056121;28;20040;-81
2023/09/20 07:02:00;;;;;;;5.75;3.05;;;;;;;19.23;100.00;100719.34;5038969;28;20035;-82
2023/09/20 07:04:25;;;;;;;2.08;1.58;;;;;;;19.25;100.00;100696.22;5050545;28;20467;-80
2023/09/20 07:06:55;;;;;;;1.17;1.02;;;;;;;19.43;100.00;100731.13;5064954;28;20056;-81
2023/09/20 07:09:21;;;;;;;1.58;1.48;;;;;;;19.45;100.00;100756.78;5063024;28;20590;-82
2023/09/20 07:11:48;;;;;;;1.98;1.77;;;;;;;18.96;100.00;100657.22;5059697;28;20063;-81
2023/09/20 07:14:14;;;;;;;4.90;2.35;;;;;;;19.61;100.00;100758.03;5045108;28;20035;-79
2023/09/20 07:16:40;;;;;;;1.33;1.20;;;;;;;19.44;100.00;100740.88;5072839;28;20033;-80
2023/09/20 07:19:06;;;;;;;6.95;2.35;;;;;;;19.43;100.00;100745.31;5066196;28;20036;-81
2023/09/20 07:21:37;;;;;;;2.85;2.50;;;;;;;18.56;100.00;100592.78;5059879;28;20032;-82
2023/09/20 07:24:06;;;;;;;2.78;2.50;;;;;;;18.94;100.00;100685.63;5061085;28;20028;-85
2023/09/20 07:26:33;;;;;;;1.70;1.35;;;;;;;19.46;100.00;100760.34;5042949;28;20036;-79
2023/09/20 07:28:59;;;;;;;2.28;1.77;;;;;;;19.13;100.00;100689.50;5067343;28;20024;-81
2023/09/20 07:31:26;;;;;;;2.72;1.52;;;;;;;19.67;100.00;100777.44;5070858;28;20121;-79
2023/09/20 07:33:54;;;;;;;6.07;1.65;;;;;;;19.57;100.00;100750.19;5058613;28;20596;-80
2023/09/20 07:36:19;;;;;;;0.98;0.95;;;;;;;19.79;100.00;100763.75;5065505;28;20049;-80
2023/09/20 07:38:45;;;;;;;2.38;1.73;;;;;;;19.83;100.00;100770.72;5042222;28;20036;-82
2023/09/20 07:41:17;;;;;;;1.38;0.95;;;;;;;19.90;100.00;100771.38;5067760;28;20044;-80
2023/09/20 07:43:44;;;;;;;2.03;1.88;;;;;;;19.46;100.00;100702.66;5063537;28;20209;-80
2023/09/20 07:46:13;;;;;;;0.88;0.88;;;;;;;19.97;100.00;100786.22;5056726;28;20104;-79
2023/09/20 07:48:47;;;;;;;3.30;2.28;;;;;;;19.68;100.00;100755.19;5055010;28;20368;-79
2023/09/20 07:51:14;;;;;;;2.58;1.80;;;;;;;20.09;100.00;100790.28;5063367;28;20514;-80
2023/09/20 07:53:40;;;;;;;3.35;3.10;;;;;;;19.40;100.00;100676.22;5055239;28;20036;-80
2023/09/20 07:56:06;;;;;;;2.75;2.55;;;;;;;19.59;100.00;100685.34;5063737;28;20510;-80
2023/09/20 07:58:34;;;;;;;2.22;1.98;;;;;;;20.33;100.00;100783.25;5063145;28;20053;-85
2023/09/20 08:01:12;;;;;;;1.50;1.40;;;;;;;20.26;100.00;100771.06;5066198;28;20041;-82
2023/09/20 08:03:50;;;;;;;2.47;2.13;;;;;;;20.29;100.00;100723.00;5040473;28;20033;-80
2023/09/20 08:06:33;;;;;;;5.35;2.08;;;;;;;20.25;100.00;100708.88;5048343;28;20131;-82
2023/09/20 08:08:59;;;;;;;1.85;1.67;;;;;;;20.79;100.00;100803.88;5054625;28;20037;-79
2023/09/20 08:11:26;;;;;;;1.13;1.02;;;;;;;20.85;100.00;100762.75;5046798;28;20037;-82
2023/09/20 08:13:53;;;;;;;3.80;2.70;;;;;;;20.77;100.00;100706.19;5059103;28;20467;-82
2023/09/20 08:16:19;;;;;;;2.25;1.98;;;;;;;21.21;100.00;100776.53;5036960;28;20072;-79
2023/09/20 08:21:32;;;;;;;1.63;0.95;;;;;;;21.52;100.00;100787.81;5058541;28;20097;-81
2023/09/20 08:59:54;;;;;;;0.50;0.50;;;;;;;20.94;100.00;100729.53;5059427;28;20145;-83
2023/09/20 09:02:24;;;;;;;1.38;1.27;;;;;;;21.34;100.00;100760.03;5059442;28;20128;-80
2023/09/20 09:04:54;;;;;;;1.48;1.38;;;;;;;21.56;100.00;100805.47;5065490;28;20046;-79
2023/09/20 09:07:22;;;;;;;0.85;0.43;;;;;;;21.35;100.00;100808.00;5066151;28;20487;-82
2023/09/20 09:09:49;;;;;;;1.95;1.85;;;;;;;20.89;100.00;100697.69;5050958;28;20037;-81
2023/09/20 09:12:15;;;;;;;1.38;1.27;;;;;;;21.06;100.00;100718.38;5057666;28;20133;-80
2023/09/20 09:14:41;;;;;;;1.38;1.00;;;;;;;20.84;100.00;100675.69;5058272;28;20039;-82
2023/09/20 09:17:08;;;;;;;0.47;0.47;;;;;;;21.59;100.00;100784.88;5057580;28;20055;-81
2023/09/20 09:19:35;;;;;;;1.90;1.75;;;;;;;21.60;100.00;100765.22;5074295;28;20059;-79
2023/09/20 09:22:01;;;;;;;3.80;3.42;;;;;;;21.80;100.00;100767.09;5065928;28;20047;-79
2023/09/20 09:24:29;;;;;;;0.63;0.63;;;;;;;21.79;100.00;100785.84;5051082;28;20045;-80
2023/09/20 09:27:06;;;;;;;1.70;1.60;;;;;;;21.49;100.00;100744.31;5060257;28;20412;-79
2023/09/20 09:29:32;;;;;;;2.63;2.30;;;;;;;21.24;100.00;100661.63;5070621;28;20035;-82
2023/09/20 09:32:00;;;;;;;3.92;1.17;;;;;;;21.40;100.00;100736.66;5056592;28;20140;-79
2023/09/20 09:34:26;;;;;;;5.07;1.33;;;;;;;21.98;100.00;100778.81;5068930;28;20041;-80
2023/09/20 09:36:53;;;;;;;2.10;1.85;;;;;;;21.68;100.00;100763.13;5066752;28;20052;-80
2023/09/20 09:39:19;;;;;;;0.63;0.50;;;;;;;22.08;100.00;100779.31;5072113;28;20132;-81
2023/09/20 09:41:46;;;;;;;2.72;2.58;;;;;;;22.08;100.00;100774.84;5066565;28;20037;-80
2023/09/20 09:44:12;;;;;;;2.33;1.35;;;;;;;21.64;100.00;100684.06;5068703;28;20094;-79
2023/09/20 09:46:38;;;;;;;4.05;1.33;;;;;;;21.50;100.00;100649.91;5050573;28;20052;-80
2023/09/20 09:49:12;;;;;;;2.33;2.13;;;;;;;22.13;100.00;100697.13;5070341;28;20040;-80
2023/09/20 09:51:50;;;;;;;;;;;;;;;22.51;100.00;100765.00;5053277;28;20061;-82
2023/09/20 09:54:18;;;;;;;1.05;0.95;;;;;;;22.26;100.00;100673.44;5059799;28;20007;-80
2023/09/20 09:56:43;;;;;;;0.82;0.77;;;;;;;22.97;100.00;100756.72;5054978;28;20044;-81
2023/09/20 09:59:10;;;;;;;1.88;1.73;;;;;;;23.13;100.00;100775.63;5065398;28;20652;-82
2023/09/20 10:01:36;;;;;;;1.60;1.50;;;;;;;23.01;100.00;100774.38;5057839;28;20040;-80
2023/09/20 10:04:13;;;;;;;1.52;1.27;;;;;;;23.32;100.00;100757.78;5046457;28;20045;-80
2023/09/20 10:06:45;;;;;;;2.25;1.92;;;;;;;23.42;100.00;100752.84;5062480;28;20037;-82
2023/09/20 10:09:12;;;;;;;0.68;0.60;;;;;;;23.37;100.00;100776.31;5051545;28;20043;-82
2023/09/20 10:11:42;;;;;;;1.52;1.10;;;;;;;23.49;100.00;100777.53;5054988;28;20028;-80
2023/09/20 10:14:10;;;;;;;1.05;1.02;;;;;;;23.33;100.00;100695.22;5068958;28;20033;-80
2023/09/20 10:16:39;;;;;;;1.35;1.25;;;;;;;23.19;100.00;100665.59;5068777;28;20059;-81
2023/09/20 10:19:10;;;;;;;4.82;1.45;;;;;;;23.31;100.00;100664.13;5059562;28;20068;-81
2023/09/20 10:21:39;;;;;;;1.00;0.98;;;;;;;23.47;100.00;100674.94;5050745;28;20101;-79
2023/09/20 10:24:07;;;;;;;1.20;1.10;;;;;;;23.58;100.00;100676.16;5039962;28;20199;-81
2023/09/20 10:26:43;;;;;;;1.05;0.95;;;;;;;24.31;100.00;100759.16;5068113;28;20039;-80
2023/09/20 10:29:25;;;;;;;1.98;1.85;;;;;;;22.76;100.00;100491.00;5043308;28;20115;-79
2023/09/20 10:31:53;;;;;;;1.73;1.45;;;;;;;24.49;100.00;100762.75;5062807;28;20072;-80
2023/09/20 10:34:19;;;;;;;1.52;1.42;;;;;;;25.09;100.00;100772.94;5067996;28;20046;-78
2023/09/20 10:36:53;;;;;;;1.95;1.65;;;;;;;24.24;100.00;100744.34;5066760;28;20048;-82
2023/09/20 10:39:19;;;;;;;0.40;0.38;;;;;;;25.12;100.00;100779.97;5068642;28;20086;-80
2023/09/20 10:41:46;;;;;;;2.08;1.90;;;;;;;24.82;100.00;100717.13;5061764;28;20119;-83
2023/09/20 10:44:38;;;;;;;6.00;2.95;;;;;;;25.83;93.44;100758.94;5065293;28;20068;-79
2023/09/20 10:47:08;;;;;;;1.27;1.05;;;;;;;25.58;94.69;100742.50;5044978;28;20647;-81
2023/09/20 10:49:50;;;;;;;0.90;0.73;;;;;;;25.41;89.59;100684.34;5067276;28;20087;-80
2023/09/20 10:52:33;;;;;;;3.00;2.80;;;;;;;25.69;88.13;100746.28;5065441;28;20830;-83
2023/09/20 10:55:22;;;;;;;1.75;1.58;;;;;;;26.52;86.11;100743.22;5061310;28;20568;-82
2023/09/20 10:57:51;;;;;;;0.80;0.38;;;;;;;26.45;85.74;100744.53;5060561;28;20135;-80
2023/09/20 11:00:30;;;;;;;0.93;0.63;;;;;;;25.76;85.20;100706.50;5059222;28;20048;-83
2023/09/20 11:02:59;;;;;;;0.65;0.65;;;;;;;25.12;88.44;100664.47;5060571;28;20036;-82
2023/09/20 11:05:28;;;;;;;1.30;0.85;;;;;;;25.90;87.35;100690.44;5057410;28;20063;-81
2023/09/20 11:07:55;;;;;;;0.40;0.40;;;;;;;26.00;82.35;100641.47;5057480;28;20447;-81
2023/09/20 11:10:21;;;;;;;0.85;0.85;;;;;;;26.43;81.59;100736.56;5057456;28;20045;-82
2023/09/20 11:12:47;;;;;;;0.73;0.68;;;;;;;26.03;86.10;100704.00;5064413;28;20040;-81
2023/09/20 11:15:16;;;;;;;3.63;3.33;;;;;;;25.97;84.19;100649.75;5060545;28;20468;-80
2023/09/20 11:17:42;;;;;;;3.60;2.33;;;;;;;26.12;82.67;100635.34;5065698;28;20124;-81
2023/09/20 11:20:08;;;;;;;5.15;1.13;;;;;;;26.40;82.96;100709.84;5063808;28;20360;-81
2023/09/20 11:22:34;;;;;;;0.40;0.40;;;;;;;26.14;84.53;100718.66;5065667;28;20488;-79
2023/09/20 11:25:03;;;;;;;1.35;1.25;;;;;;;26.24;84.16;100711.75;5056748;28;20105;-80
2023/09/20 11:27:28;;;;;;;2.25;2.05;;;;;;;25.38;87.50;100650.47;5051493;28;20040;-81
2023/09/20 11:30:04;;;;;;;1.55;1.00;;;;;;;26.19;84.58;100689.63;5063590;28;20055;-79
2023/09/20 11:32:30;;;;;;;0.40;0.40;;;;;;;26.36;85.20;100710.13;5045104;28;20036;-79
2023/09/20 11:34:55;;;;;;;1.95;1.17;;;;;;;25.52;85.61;100651.47;5066004;28;20032;-80
2023/09/20 11:37:22;;;;;;;0.82;0.73;;;;;;;26.07;85.57;100716.31;5047385;28;20063;-83
2023/09/20 11:39:53;;;;;;;0.75;0.52;;;;;;;26.21;84.32;100683.19;5057917;28;20052;-81
2023/09/20 11:42:25;;;;;;;3.10;1.83;;;;;;;26.44;80.90;100719.47;5041123;28;20327;-82
2023/09/20 11:44:58;;;;;;;1.73;1.63;;;;;;;25.16;83.72;100621.25;5065777;28;20043;-80
2023/09/20 11:47:24;;;;;;;3.22;1.95;;;;;;;25.82;87.95;100711.47;5071135;28;20034;-80
2023/09/20 11:49:50;;;;;;;1.15;1.05;;;;;;;24.78;89.17;100608.19;5062601;28;20037;-80
2023/09/20 11:52:20;;;;;;;2.05;1.85;;;;;;;25.85;88.74;100683.56;5041642;28;20059;-80
2023/09/20 11:54:47;;;;;;;0.95;0.95;;;;;;;26.13;85.15;100709.72;5052628;28;20041;-82
2023/09/20 11:57:16;;;;;;;0.20;0.20;;;;;;;25.55;84.46;100632.50;5048357;28;20048;-83
2023/09/20 11:59:43;;;;;;;0.75;0.75;;;;;;;26.08;82.87;100691.16;5051798;28;20036;-81
2023/09/20 12:02:12;;;;;;;4.60;2.83;;;;;;;25.35;83.83;100623.75;5056845;28;20021;-80